createdAt,value
2023-02-22T00:02:25.287Z,23.67
2023-02-22T00:04:54.597Z,23.27
2023-02-22T00:07:23.825Z,25.43
2023-02-22T00:09:52.032Z,24.00
2023-02-22T00:12:20.676Z,24.37
2023-02-22T00:14:49.283Z,25.07
2023-02-22T00:17:20.543Z,29.10
2023-02-22T00:19:50.710Z,25.93
2023-02-22T00:22:20.752Z,23.87
2023-02-22T00:24:50.236Z,23.97
2023-02-22T00:27:18.900Z,23.40
2023-02-22T00:29:47.590Z,24.07
2023-02-22T00:32:16.494Z,23.97
2023-02-22T00:34:46.157Z,25.43
2023-02-22T00:37:14.395Z,25.40
2023-02-22T00:39:42.721Z,25.47
2023-02-22T00:42:10.912Z,26.30
2023-02-22T00:44:39.260Z,26.13
2023-02-22T00:47:07.545Z,26.93
2023-02-22T00:49:36.069Z,27.03
2023-02-22T00:52:06.344Z,27.17
2023-02-22T00:54:34.711Z,28.17
2023-02-22T00:57:03.542Z,26.73
2023-02-22T00:59:32.330Z,27.77
2023-02-22T01:02:00.621Z,25.67
2023-02-22T01:04:29.035Z,25.73
2023-02-22T01:06:58.773Z,24.97
2023-02-22T01:09:28.514Z,26.43
2023-02-22T01:11:57.137Z,27.30
2023-02-22T01:14:27.935Z,24.13
2023-02-22T01:16:57.191Z,25.67
2023-02-22T01:19:25.579Z,24.03
2023-02-22T01:21:54.605Z,21.70
2023-02-22T01:24:22.720Z,21.60
2023-02-22T01:26:54.022Z,22.50
2023-02-22T01:29:22.446Z,21.63
2023-02-22T01:31:55.872Z,23.60
2023-02-22T01:34:25.725Z,22.43
2023-02-22T01:36:53.891Z,21.93
2023-02-22T01:39:22.090Z,22.43
2023-02-22T01:41:50.278Z,22.73
2023-02-22T01:44:23.116Z,20.10
2023-02-22T01:46:51.481Z,22.30
2023-02-22T01:49:19.796Z,21.83
2023-02-22T01:51:52.708Z,21.80
2023-02-22T01:54:26.082Z,21.87
2023-02-22T01:57:01.263Z,21.73
2023-02-22T01:59:34.991Z,24.17
2023-02-22T02:02:04.602Z,22.53
2023-02-22T02:04:34.514Z,22.83
2023-02-22T02:07:07.122Z,23.87
2023-02-22T02:09:41.061Z,24.60
2023-02-22T02:12:12.240Z,23.47
2023-02-22T02:14:43.942Z,23.33
2023-02-22T02:17:14.656Z,25.27
2023-02-22T02:19:49.414Z,24.37
2023-02-22T02:22:42.690Z,24.23
2023-02-22T02:25:32.487Z,23.70
2023-02-22T02:28:28.101Z,25.43
2023-02-22T02:31:50.195Z,23.40
2023-02-22T02:34:25.397Z,23.93
2023-02-22T02:37:02.187Z,24.73
2023-02-22T02:39:34.810Z,24.63
2023-02-22T02:42:06.694Z,25.57
2023-02-22T02:44:42.373Z,24.47
2023-02-22T02:47:15.799Z,24.93
2023-02-22T02:49:52.557Z,25.67
2023-02-22T02:52:24.550Z,26.00
2023-02-22T02:54:53.379Z,23.17
2023-02-22T02:57:21.969Z,25.53
2023-02-22T02:59:50.210Z,25.30
2023-02-22T03:02:38.656Z,25.00
2023-02-22T03:05:26.642Z,23.63
2023-02-22T03:08:02.306Z,23.90
2023-02-22T03:10:44.820Z,25.20
2023-02-22T03:13:20.462Z,22.70
2023-02-22T03:15:55.064Z,25.87
2023-02-22T03:18:30.307Z,24.67
2023-02-22T03:21:08.881Z,25.57
2023-02-22T03:23:43.759Z,25.33
2023-02-22T03:26:16.045Z,24.17
2023-02-22T03:28:47.974Z,25.37
2023-02-22T03:31:19.619Z,25.33
2023-02-22T03:33:53.082Z,22.97
2023-02-22T03:36:29.785Z,24.37
2023-02-22T03:39:01.100Z,25.03
2023-02-22T03:41:31.164Z,24.83
2023-02-22T03:44:04.407Z,26.00
2023-02-22T03:46:33.927Z,23.87
2023-02-22T03:49:08.970Z,25.73
2023-02-22T03:51:39.589Z,24.50
2023-02-22T03:54:09.449Z,25.73
2023-02-22T03:56:47.488Z,23.90
2023-02-22T03:59:16.128Z,25.37
2023-02-22T04:01:44.388Z,25.10
2023-02-22T04:04:12.578Z,24.97
2023-02-22T04:06:42.450Z,24.80
2023-02-22T04:09:10.656Z,24.37
2023-02-22T04:11:38.983Z,22.97
2023-02-22T04:14:07.366Z,24.63
2023-02-22T04:16:35.591Z,23.23
2023-02-22T04:19:03.784Z,24.43
2023-02-22T04:21:31.922Z,24.77
2023-02-22T04:24:01.537Z,24.10
2023-02-22T04:26:29.726Z,23.33
2023-02-22T04:28:57.888Z,24.00
2023-02-22T04:31:26.316Z,23.80
2023-02-22T04:33:54.711Z,24.77
2023-02-22T04:36:23.066Z,25.40
2023-02-22T04:38:51.276Z,22.93
2023-02-22T04:41:22.968Z,23.40
2023-02-22T04:43:52.655Z,24.27
2023-02-22T04:46:20.995Z,24.83
2023-02-22T04:48:49.218Z,25.83
2023-02-22T04:51:18.010Z,24.60
2023-02-22T04:53:46.308Z,25.67
2023-02-22T04:56:14.577Z,23.97
2023-02-22T04:58:44.098Z,24.40
2023-02-22T05:01:12.621Z,22.10
2023-02-22T05:03:40.865Z,21.03
2023-02-22T05:06:09.649Z,19.47
2023-02-22T05:08:37.886Z,19.00
2023-02-22T05:11:06.362Z,18.37
2023-02-22T05:13:34.566Z,15.77
2023-02-22T05:16:04.982Z,16.07
2023-02-22T05:18:33.150Z,19.07
2023-02-22T05:21:01.304Z,18.17
2023-02-22T05:23:29.443Z,19.10
2023-02-22T05:25:58.308Z,17.40
2023-02-22T05:28:26.965Z,16.90
2023-02-22T05:30:55.747Z,15.90
2023-02-22T05:33:26.409Z,16.17
2023-02-22T05:35:56.102Z,16.10
2023-02-22T05:38:24.398Z,16.10
2023-02-22T05:40:52.677Z,17.93
2023-02-22T05:43:20.894Z,16.10
2023-02-22T05:45:49.094Z,16.20
2023-02-22T05:48:17.426Z,16.23
2023-02-22T05:50:47.327Z,16.07
2023-02-22T05:53:15.620Z,16.87
2023-02-22T05:55:46.207Z,17.10
2023-02-22T05:58:15.263Z,17.60
2023-02-22T06:00:43.680Z,18.00
2023-02-22T06:03:13.672Z,16.63
2023-02-22T06:05:42.069Z,17.23
2023-02-22T06:08:12.825Z,17.00
2023-02-22T06:10:41.020Z,17.43
2023-02-22T06:13:09.354Z,20.70
2023-02-22T06:15:37.521Z,20.20
2023-02-22T06:18:05.955Z,18.83
2023-02-22T06:20:35.576Z,16.83
2023-02-22T06:23:03.768Z,15.80
2023-02-22T06:25:33.520Z,14.87
2023-02-22T06:28:02.581Z,14.43
2023-02-22T06:30:32.097Z,15.30
2023-02-22T06:33:00.325Z,13.73
2023-02-22T06:35:28.475Z,15.00
2023-02-22T06:37:56.608Z,14.60
2023-02-22T06:40:29.454Z,15.07
2023-02-22T06:43:00.050Z,15.80
2023-02-22T06:45:28.599Z,18.50
2023-02-22T06:47:56.783Z,17.70
2023-02-22T06:50:28.820Z,13.23
2023-02-22T06:52:57.329Z,13.27
2023-02-22T06:55:27.535Z,13.17
2023-02-22T06:57:55.890Z,13.53
2023-02-22T07:00:27.683Z,13.00
2023-02-22T07:02:56.514Z,14.53
2023-02-22T07:05:25.939Z,13.07
2023-02-22T07:07:55.911Z,13.37
2023-02-22T07:10:27.628Z,12.77
2023-02-22T07:12:56.370Z,12.33
2023-02-22T07:15:28.776Z,12.73
2023-02-22T07:17:57.566Z,11.80
2023-02-22T07:20:27.060Z,12.07
2023-02-22T07:22:56.645Z,11.50
2023-02-22T07:25:25.843Z,12.23
2023-02-22T07:27:54.097Z,12.03
2023-02-22T07:30:26.309Z,11.57
2023-02-22T07:32:56.171Z,10.80
2023-02-22T07:35:26.675Z,10.13
2023-02-22T07:37:56.099Z,9.80
2023-02-22T07:40:25.402Z,10.60
2023-02-22T07:42:59.547Z,9.67
2023-02-22T07:45:30.796Z,9.23
2023-02-22T07:47:59.408Z,7.83
2023-02-22T07:50:31.265Z,8.00
2023-02-22T07:53:00.849Z,8.60
2023-02-22T07:55:30.956Z,8.20
2023-02-22T07:58:01.354Z,8.47
2023-02-22T08:00:32.933Z,8.67
2023-02-22T08:03:02.350Z,9.37
2023-02-22T08:05:31.992Z,9.03
2023-02-22T08:08:00.341Z,9.80
2023-02-22T08:10:29.549Z,8.87
2023-02-22T08:12:58.224Z,9.03
2023-02-22T08:15:29.512Z,9.17
2023-02-22T08:18:00.233Z,9.00
2023-02-22T08:20:29.095Z,9.43
2023-02-22T08:22:58.223Z,9.47
2023-02-22T08:25:28.870Z,9.40
2023-02-22T08:28:01.369Z,10.10
2023-02-22T08:30:30.914Z,19.23
2023-02-22T08:33:02.486Z,11.83
2023-02-22T08:35:32.401Z,11.07
2023-02-22T08:38:02.262Z,9.63
2023-02-22T08:40:32.201Z,10.43
2023-02-22T08:43:01.686Z,10.00
2023-02-22T08:45:30.561Z,10.77
2023-02-22T08:48:00.616Z,11.37
2023-02-22T08:50:31.002Z,12.37
2023-02-22T08:53:01.564Z,12.83
2023-02-22T08:55:32.235Z,13.00
2023-02-22T08:58:03.098Z,13.47
2023-02-22T09:00:33.990Z,14.37
2023-02-22T09:03:04.893Z,13.30
2023-02-22T09:05:33.566Z,13.83
2023-02-22T09:08:02.180Z,21.07
2023-02-22T09:10:33.059Z,16.40
2023-02-22T09:13:04.035Z,37.90
2023-02-22T09:15:33.483Z,13.23
2023-02-22T09:18:03.398Z,12.33
2023-02-22T09:20:32.549Z,41.87
2023-02-22T09:23:02.819Z,25.97
2023-02-22T09:25:31.236Z,11.87
2023-02-22T09:27:59.519Z,17.50
2023-02-22T09:30:31.997Z,10.10
2023-02-22T09:33:03.767Z,12.23
2023-02-22T09:35:36.038Z,44.43
2023-02-22T09:38:06.372Z,27.83
2023-02-22T09:40:41.161Z,36.23
2023-02-22T09:43:22.002Z,28.97
2023-02-22T09:46:05.245Z,16.30
2023-02-22T09:48:40.143Z,17.20
2023-02-22T09:51:18.388Z,18.73
2023-02-22T09:53:49.799Z,15.57
2023-02-22T09:56:20.754Z,15.10
2023-02-22T09:58:52.358Z,12.67
2023-02-22T10:01:28.026Z,12.63
2023-02-22T10:04:05.263Z,12.43
2023-02-22T10:06:34.883Z,14.43
2023-02-22T10:09:08.121Z,23.33
2023-02-22T10:11:51.016Z,18.23
2023-02-22T10:14:43.866Z,19.27
2023-02-22T10:17:19.595Z,17.80
2023-02-22T10:19:57.892Z,17.00
2023-02-22T10:22:40.962Z,18.63
2023-02-22T10:25:14.929Z,19.70
2023-02-22T10:27:47.930Z,20.10
2023-02-22T10:30:27.824Z,23.20
2023-02-22T10:33:02.410Z,25.47
2023-02-22T10:35:36.235Z,22.33
2023-02-22T10:38:14.908Z,22.50
2023-02-22T10:40:46.468Z,22.53
2023-02-22T10:43:15.018Z,25.03
2023-02-22T10:45:43.563Z,24.43
2023-02-22T10:48:18.552Z,23.93
2023-02-22T10:50:50.508Z,25.43
2023-02-22T10:53:18.705Z,25.90
2023-02-22T10:56:09.892Z,26.23
2023-02-22T10:58:47.898Z,28.27
2023-02-22T11:01:26.241Z,24.93
2023-02-22T11:03:59.906Z,25.63
2023-02-22T11:06:30.449Z,25.70
2023-02-22T11:09:11.461Z,24.80
2023-02-22T11:11:42.019Z,25.83
2023-02-22T11:14:11.854Z,26.90
2023-02-22T11:16:43.645Z,24.20
2023-02-22T11:19:20.990Z,22.50
2023-02-22T11:21:53.035Z,21.33
2023-02-22T11:24:24.754Z,22.33
2023-02-22T11:26:56.516Z,23.83
2023-02-22T11:29:28.829Z,22.83
2023-02-22T11:31:57.677Z,23.30
2023-02-22T11:34:35.175Z,22.43
2023-02-22T11:37:32.670Z,23.60
2023-02-22T11:40:14.023Z,25.13
2023-02-22T11:42:42.277Z,26.27
2023-02-22T11:45:14.053Z,27.27
2023-02-22T11:47:53.921Z,24.60
2023-02-22T11:50:31.985Z,26.97
2023-02-22T11:53:25.500Z,27.27
2023-02-22T11:56:08.099Z,23.00
2023-02-22T11:58:45.695Z,25.43
2023-02-22T12:01:23.195Z,26.67
2023-02-22T12:04:25.658Z,26.43
2023-02-22T12:07:05.280Z,30.00
2023-02-22T12:09:41.535Z,30.83
2023-02-22T12:12:18.740Z,32.90
2023-02-22T12:14:57.231Z,35.00
2023-02-22T12:17:35.962Z,32.53
2023-02-22T12:20:12.422Z,26.47
2023-02-22T12:22:47.766Z,58.83
2023-02-22T12:25:23.871Z,35.87
2023-02-22T12:27:56.960Z,33.07
2023-02-22T12:30:29.492Z,30.13
2023-02-22T12:33:01.352Z,29.80
2023-02-22T12:35:34.892Z,33.60
2023-02-22T12:38:10.980Z,35.60
2023-02-22T12:40:53.975Z,34.50
2023-02-22T12:43:28.013Z,33.33
2023-02-22T12:46:05.433Z,33.67
2023-02-22T12:48:45.042Z,31.40
2023-02-22T12:51:24.904Z,32.37
2023-02-22T12:54:01.339Z,31.57
2023-02-22T12:56:35.559Z,33.83
2023-02-22T12:59:13.168Z,35.83
2023-02-22T13:01:45.105Z,31.10
2023-02-22T13:04:21.002Z,32.30
2023-02-22T13:07:11.371Z,34.63
2023-02-22T13:10:00.712Z,33.43
2023-02-22T13:12:38.234Z,34.97
2023-02-22T13:15:15.422Z,33.67
2023-02-22T13:17:51.644Z,36.03
2023-02-22T13:20:25.822Z,35.07
2023-02-22T13:23:00.941Z,34.90
2023-02-22T13:25:38.594Z,54.80
2023-02-22T13:28:22.080Z,35.73
2023-02-22T13:31:03.099Z,35.23
2023-02-22T13:33:46.670Z,36.20
2023-02-22T13:36:34.197Z,36.20
2023-02-22T13:39:29.212Z,36.10
2023-02-22T13:42:23.023Z,33.27
2023-02-22T13:45:14.144Z,35.10
2023-02-22T13:48:14.691Z,35.33
2023-02-22T13:51:06.617Z,35.07
2023-02-22T13:53:43.795Z,33.80
2023-02-22T13:56:14.937Z,35.00
2023-02-22T13:58:52.116Z,34.30
2023-02-22T14:01:43.726Z,31.93
2023-02-22T14:04:41.754Z,30.40
2023-02-22T14:07:56.111Z,31.30
2023-02-22T14:10:48.646Z,36.37
2023-02-22T14:13:18.975Z,35.03
2023-02-22T14:16:20.553Z,32.30
2023-02-22T14:19:01.193Z,33.83
2023-02-22T14:21:29.952Z,35.70
2023-02-22T14:24:07.131Z,37.80
2023-02-22T14:26:37.113Z,40.27
2023-02-22T14:29:17.833Z,40.90
2023-02-22T14:32:02.266Z,41.97
2023-02-22T14:34:48.799Z,42.57
2023-02-22T14:37:20.147Z,41.63
2023-02-22T14:39:51.471Z,67.07
2023-02-22T14:42:25.546Z,45.03
2023-02-22T14:45:00.950Z,43.23
2023-02-22T14:47:33.032Z,41.57
2023-02-22T14:50:07.292Z,43.50
2023-02-22T14:52:39.763Z,45.70
2023-02-22T14:55:17.090Z,53.33
2023-02-22T14:58:02.217Z,41.17
2023-02-22T15:00:41.895Z,48.33
2023-02-22T15:03:20.582Z,46.10
2023-02-22T15:05:50.918Z,46.83
2023-02-22T15:08:28.036Z,78.73
2023-02-22T15:10:56.585Z,47.43
2023-02-22T15:13:27.796Z,42.57
2023-02-22T15:16:01.386Z,44.57
2023-02-22T15:18:34.596Z,43.00
2023-02-22T15:21:10.111Z,44.30
2023-02-22T15:23:45.666Z,44.13
2023-02-22T15:26:26.638Z,43.83
2023-02-22T15:28:56.454Z,42.53
2023-02-22T15:31:28.756Z,44.77
2023-02-22T15:33:57.116Z,46.27
2023-02-22T15:36:31.053Z,44.83
2023-02-22T15:38:59.355Z,44.80
2023-02-22T15:41:31.592Z,46.87
2023-02-22T15:44:08.054Z,43.57
2023-02-22T15:46:42.464Z,43.60
2023-02-22T15:49:23.304Z,45.73
2023-02-22T15:52:05.439Z,44.83
2023-02-22T15:54:44.210Z,45.00
2023-02-22T15:57:16.507Z,46.43
2023-02-22T15:59:49.456Z,42.70
2023-02-22T16:02:35.818Z,44.07
2023-02-22T16:05:07.444Z,45.20
2023-02-22T16:07:42.064Z,48.37
2023-02-22T16:10:27.279Z,45.13
2023-02-22T16:13:14.452Z,47.63
2023-02-22T16:15:55.935Z,45.17
2023-02-22T16:18:35.308Z,45.07
2023-02-22T16:21:06.761Z,46.23
2023-02-22T16:23:46.745Z,45.73
2023-02-22T16:26:22.753Z,45.13
2023-02-22T16:28:55.385Z,44.37
2023-02-22T16:31:26.333Z,46.60
2023-02-22T16:33:55.558Z,48.53
2023-02-22T16:36:37.821Z,47.00
2023-02-22T16:39:08.916Z,44.10
2023-02-22T16:41:37.182Z,45.83
2023-02-22T16:44:07.747Z,49.43
2023-02-22T16:46:37.996Z,49.10
2023-02-22T16:49:06.839Z,45.63
2023-02-22T16:51:42.104Z,49.10
2023-02-22T16:54:15.039Z,59.20
2023-02-22T16:56:43.245Z,52.90
2023-02-22T16:59:15.212Z,47.20
2023-02-22T17:01:44.311Z,46.70
2023-02-22T17:04:20.874Z,46.40
2023-02-22T17:06:49.580Z,47.60
2023-02-22T17:09:20.136Z,48.03
2023-02-22T17:11:51.180Z,48.17
2023-02-22T17:14:23.193Z,56.93
2023-02-22T17:16:51.994Z,48.33
2023-02-22T17:19:22.295Z,47.87
2023-02-22T17:21:50.929Z,54.90
2023-02-22T17:24:22.879Z,55.80
2023-02-22T17:26:52.100Z,49.87
2023-02-22T17:29:20.716Z,48.17
2023-02-22T17:31:49.457Z,46.13
2023-02-22T17:34:17.939Z,45.90
2023-02-22T17:36:46.176Z,47.97
2023-02-22T17:39:14.437Z,46.63
2023-02-22T17:41:44.295Z,43.73
2023-02-22T17:44:12.750Z,46.87
2023-02-22T17:46:41.979Z,46.30
2023-02-22T17:49:10.192Z,125.07
2023-02-22T17:51:41.098Z,89.20
2023-02-22T17:54:10.515Z,50.73
2023-02-22T17:56:38.874Z,48.17
2023-02-22T17:59:09.229Z,45.17
2023-02-22T18:01:38.091Z,51.43
2023-02-22T18:04:06.995Z,62.67
2023-02-22T18:06:35.323Z,51.93
2023-02-22T18:09:10.305Z,55.10
2023-02-22T18:11:40.331Z,58.83
2023-02-22T18:14:12.260Z,54.23
2023-02-22T18:16:41.554Z,50.70
2023-02-22T18:19:09.785Z,50.00
2023-02-22T18:21:38.797Z,48.80
2023-02-22T18:24:07.680Z,49.57
2023-02-22T18:26:36.487Z,47.77
2023-02-22T18:29:04.747Z,49.53
2023-02-22T18:31:34.550Z,48.97
2023-02-22T18:34:02.843Z,47.53
2023-02-22T18:36:32.431Z,49.43
2023-02-22T18:39:00.684Z,47.73
2023-02-22T18:41:29.023Z,50.40
2023-02-22T18:44:00.301Z,48.77
2023-02-22T18:46:30.056Z,49.70
2023-02-22T18:49:00.344Z,48.83
2023-02-22T18:51:29.124Z,47.60
2023-02-22T18:54:00.539Z,48.47
2023-02-22T18:56:30.856Z,46.37
2023-02-22T18:59:00.716Z,49.43
2023-02-22T19:01:30.414Z,54.87
2023-02-22T19:04:01.313Z,52.87
2023-02-22T19:06:29.515Z,59.40
2023-02-22T19:09:01.425Z,103.90
2023-02-22T19:11:29.864Z,61.40
2023-02-22T19:13:59.108Z,57.50
2023-02-22T19:16:28.181Z,69.30
2023-02-22T19:18:58.079Z,64.57
2023-02-22T19:21:29.244Z,62.13
2023-02-22T19:23:57.702Z,56.13
2023-02-22T19:26:29.111Z,55.07
2023-02-22T19:28:58.929Z,51.83
2023-02-22T19:31:31.652Z,50.77
2023-02-22T19:34:02.658Z,52.40
2023-02-22T19:36:32.622Z,49.63
2023-02-22T19:39:01.771Z,49.93
2023-02-22T19:41:30.966Z,49.60
2023-02-22T19:43:59.668Z,51.60
2023-02-22T19:46:28.338Z,52.30
2023-02-22T19:48:57.346Z,51.77
2023-02-22T19:51:27.924Z,50.47
2023-02-22T19:54:00.705Z,54.97
2023-02-22T19:56:30.933Z,56.20
2023-02-22T19:59:02.478Z,54.83
2023-02-22T20:01:33.524Z,56.80
2023-02-22T20:04:03.947Z,53.53
2023-02-22T20:06:35.067Z,54.93
2023-02-22T20:09:06.877Z,53.27
2023-02-22T20:11:35.690Z,56.13
2023-02-22T20:14:06.526Z,56.27
2023-02-22T20:16:35.411Z,55.10
2023-02-22T20:19:04.459Z,54.57
2023-02-22T20:21:34.778Z,56.30
2023-02-22T20:24:07.576Z,54.23
2023-02-22T20:26:38.629Z,54.80
2023-02-22T20:29:08.039Z,53.63
2023-02-22T20:31:37.178Z,52.00
2023-02-22T20:34:07.159Z,53.13
2023-02-22T20:36:37.254Z,51.40
2023-02-22T20:39:13.137Z,54.50
2023-02-22T20:41:43.451Z,54.83
2023-02-22T20:44:14.945Z,53.17
2023-02-22T20:46:43.980Z,50.13
2023-02-22T20:49:14.898Z,53.63
2023-02-22T20:51:43.068Z,52.50
2023-02-22T20:54:13.878Z,48.90
2023-02-22T20:56:43.485Z,49.13
2023-02-22T20:59:13.937Z,48.83
2023-02-22T21:01:42.520Z,50.43
2023-02-22T21:04:12.124Z,46.03
2023-02-22T21:06:43.121Z,152.17
2023-02-22T21:09:15.921Z,77.20
2023-02-22T21:11:44.662Z,44.73
2023-02-22T21:14:18.197Z,42.03
2023-02-22T21:16:48.168Z,40.47
2023-02-22T21:19:25.535Z,41.53
2023-02-22T21:21:55.688Z,57.83
2023-02-22T21:24:25.863Z,44.77
2023-02-22T21:26:55.725Z,44.27
2023-02-22T21:29:24.056Z,44.33
2023-02-22T21:31:52.490Z,41.97
2023-02-22T21:34:22.281Z,44.43
2023-02-22T21:36:52.558Z,43.23
2023-02-22T21:39:20.891Z,43.33
2023-02-22T21:41:52.521Z,43.83
2023-02-22T21:44:21.485Z,38.07
2023-02-22T21:46:49.933Z,37.97
2023-02-22T21:49:22.382Z,38.80
2023-02-22T21:51:52.565Z,38.93
2023-02-22T21:54:20.971Z,38.23
2023-02-22T21:56:50.963Z,39.97
2023-02-22T21:59:23.451Z,39.10
2023-02-22T22:01:55.556Z,38.70
2023-02-22T22:04:27.652Z,36.77
2023-02-22T22:06:57.828Z,34.50
2023-02-22T22:09:29.053Z,32.77
2023-02-22T22:12:01.474Z,30.60
2023-02-22T22:14:30.523Z,29.37
2023-02-22T22:17:00.979Z,28.60
2023-02-22T22:19:30.436Z,26.30
2023-02-22T22:21:59.334Z,25.03
2023-02-22T22:24:31.958Z,24.93
2023-02-22T22:27:03.824Z,24.13
2023-02-22T22:29:34.313Z,24.57
2023-02-22T22:32:03.269Z,23.73
2023-02-22T22:34:34.045Z,22.43
2023-02-22T22:37:03.021Z,22.63
2023-02-22T22:39:31.516Z,21.10
2023-02-22T22:42:01.943Z,19.73
2023-02-22T22:44:32.935Z,20.23
2023-02-22T22:47:01.435Z,20.50
2023-02-22T22:49:31.441Z,20.03
2023-02-22T22:51:59.681Z,20.63
2023-02-22T22:54:28.906Z,20.23
2023-02-22T22:56:57.093Z,20.43
2023-02-22T22:59:27.858Z,21.60
2023-02-22T23:01:56.680Z,21.50
2023-02-22T23:04:25.590Z,21.77
2023-02-22T23:06:55.304Z,23.63
2023-02-22T23:09:25.338Z,24.50
2023-02-22T23:11:55.850Z,23.63
2023-02-22T23:14:31.162Z,25.93
2023-02-22T23:17:03.444Z,27.37
2023-02-22T23:19:32.378Z,28.73
2023-02-22T23:22:01.308Z,26.13
2023-02-22T23:24:29.763Z,25.97
2023-02-22T23:27:00.249Z,26.77
2023-02-22T23:29:30.760Z,24.03
2023-02-22T23:31:59.071Z,23.80
2023-02-22T23:34:29.061Z,23.10
2023-02-22T23:36:57.332Z,23.30
2023-02-22T23:39:26.051Z,21.73
2023-02-22T23:41:55.437Z,23.10
2023-02-22T23:44:23.973Z,23.80
2023-02-22T23:46:55.620Z,22.20
2023-02-22T23:49:26.535Z,23.47
2023-02-22T23:51:55.686Z,21.93
2023-02-22T23:54:24.820Z,21.50
2023-02-22T23:56:56.841Z,21.67
2023-02-22T23:59:26.685Z,21.40
